Grove, OK

3:23 PM CDT on May 23, 2017 (GMT -0500)
Grove Municipal

Weather History for KGMJ - December, 2012

Change the Weather History Date:

Saturday, December 15, 2012

  Actual Average (KSLG) Record (KSLG)
Temperature  
Mean Temperature 52 °F -  
Max Temperature 62 °F 45 °F 71 °F (2006)
Min Temperature 42 °F 28 °F 15 °F (2004)
Degree Days  
Heating Degree Days 13    
Growing Degree Days 2 (Base 50)    
Moisture  
Dew Point 42 °F    
Average Humidity 67    
Maximum Humidity 100    
Minimum Humidity 39    
Precipitation  
Precipitation 0.02 in - - ()
Sea Level Pressure  
Sea Level Pressure 29.73 in    
Wind  
Wind Speed 14 mph (SSW)    
Max Wind Speed 23 mph    
Max Gust Speed 29 mph    
Visibility 10 miles    
Events Rain    
Averages and records for this station are not official NWS values.
T = Trace of Precipitation, MM = Missing Value Source: NWS Daily Summary

Daily Weather History Graph

Daily Weather History Graph

Search for Another Location

Airport or City:

Trip Planner

Search our weather history database for the weather conditions in past years. The results will help you decide how hot, cold, wet, or windy it might be!

Date:

Astronomy

Dec. 15, 2012 Rise Set
Actual Time 7:24 AM CST 5:04 PM CST
Civil Twilight 6:55 AM CST 5:33 PM CST
Nautical Twilight 6:22 AM CST 6:05 PM CST
Astronomical Twilight 5:51 AM CST 6:37 PM CST
Moon 9:20 AM CST (12/15) 8:06 PM CST (12/15)
Length of Visible Light 10h 38m
Length of Day
9h 40m
Waxing Crescent, 8% of the Moon is Illuminated
Dec 15
Waxing Crescent
Dec 19
First Quarter
Dec 28
Full
Jan 4
Last Quarter
Jan 11
New

Hourly Weather History & Observations

Time (CST) Temp. Windchill Dew Point Humidity Pressure Visibility Wind Dir Wind Speed Gust Speed Precip Events Conditions
12:15 AM 50.0 °F - 50.0 °F 100% 29.78 in 7.0 mi South 16.1 mph 25.3 mph 0.02 in Rain Light Rain
12:35 AM 50.0 °F - 48.2 °F 94% 29.74 in 10.0 mi SSE 16.1 mph 25.3 mph 0.02 in Rain Light Rain
12:55 AM 50.0 °F - 50.0 °F 100% 29.75 in 10.0 mi South 18.4 mph 25.3 mph 0.02 in   Overcast
1:15 AM 50.0 °F - 50.0 °F 100% 29.74 in 10.0 mi South 13.8 mph 24.2 mph N/A   Overcast
1:35 AM 51.8 °F - 48.2 °F 88% 29.73 in 10.0 mi South 23.0 mph 27.6 mph N/A   Mostly Cloudy
1:55 AM 51.8 °F - 48.2 °F 88% 29.73 in 10.0 mi South 18.4 mph 28.8 mph N/A   Scattered Clouds
2:15 AM 51.8 °F - 50.0 °F 94% 29.72 in 10.0 mi South 19.6 mph 26.5 mph N/A   Scattered Clouds
2:35 AM 51.8 °F - 50.0 °F 94% 29.71 in 10.0 mi South 15.0 mph 25.3 mph N/A   Scattered Clouds
2:55 AM 51.8 °F - 50.0 °F 94% 29.71 in 10.0 mi South 17.3 mph 25.3 mph N/A   Scattered Clouds
3:15 AM 51.8 °F - 50.0 °F 94% 29.70 in 10.0 mi South 17.3 mph 24.2 mph N/A   Scattered Clouds
3:35 AM 51.8 °F - 50.0 °F 94% 29.68 in 10.0 mi South 19.6 mph 25.3 mph N/A   Clear
3:55 AM 51.8 °F - 50.0 °F 94% 29.69 in 10.0 mi South 19.6 mph 26.5 mph N/A   Clear
4:15 AM 51.8 °F - 50.0 °F 94% 29.69 in 10.0 mi South 15.0 mph 21.9 mph N/A   Clear
4:35 AM 51.8 °F - 48.2 °F 88% 29.68 in 10.0 mi South 15.0 mph 21.9 mph N/A   Clear
4:55 AM 51.8 °F - 48.2 °F 88% 29.67 in 10.0 mi South 17.3 mph 20.7 mph N/A   Clear
5:15 AM 51.8 °F - 48.2 °F 88% 29.66 in 10.0 mi South 17.3 mph - N/A   Clear
5:35 AM 51.8 °F - 46.4 °F 82% 29.67 in 10.0 mi South 18.4 mph 25.3 mph N/A   Clear
5:55 AM 53.6 °F - 46.4 °F 77% 29.68 in 10.0 mi SSW 18.4 mph 26.5 mph N/A   Clear
6:15 AM 53.6 °F - 46.4 °F 77% 29.69 in 10.0 mi SSW 20.7 mph 26.5 mph N/A   Clear
6:35 AM 53.6 °F - 44.6 °F 72% 29.70 in 10.0 mi SSW 17.3 mph 24.2 mph N/A   Clear
6:55 AM 53.6 °F - 44.6 °F 72% 29.70 in 10.0 mi SSW 15.0 mph 21.9 mph N/A   Clear
7:15 AM 53.6 °F - 44.6 °F 72% 29.71 in 10.0 mi SSW 16.1 mph 24.2 mph N/A   Clear
7:35 AM 53.6 °F - 42.8 °F 67% 29.71 in 10.0 mi SSW 18.4 mph 27.6 mph N/A   Clear
7:55 AM 53.6 °F - 42.8 °F 67% 29.72 in 10.0 mi SSW 17.3 mph 27.6 mph N/A   Clear
8:15 AM 53.6 °F - 42.8 °F 67% 29.73 in 10.0 mi SSW 13.8 mph 20.7 mph N/A   Clear
8:35 AM 55.4 °F - 41.0 °F 58% 29.73 in 10.0 mi SSW 18.4 mph 25.3 mph N/A   Clear
8:55 AM 55.4 °F - 41.0 °F 58% 29.73 in 10.0 mi SSW 15.0 mph 21.9 mph N/A   Clear
9:15 AM 55.4 °F - 41.0 °F 58% 29.74 in 10.0 mi SSW 16.1 mph 24.2 mph N/A   Clear
9:35 AM 57.2 °F - 39.2 °F 51% 29.75 in 10.0 mi SSW 18.4 mph 23.0 mph N/A   Clear
9:55 AM 59.0 °F - 39.2 °F 48% 29.76 in 10.0 mi SSW 19.6 mph 23.0 mph N/A   Clear
10:15 AM 59.0 °F - 37.4 °F 45% 29.76 in 10.0 mi SW 17.3 mph 23.0 mph N/A   Clear
10:35 AM 59.0 °F - 37.4 °F 45% 29.77 in 10.0 mi SW 16.1 mph 21.9 mph N/A   Clear
10:55 AM 60.8 °F - 37.4 °F 42% 29.77 in 10.0 mi SW 20.7 mph 25.3 mph N/A   Clear
11:15 AM 60.8 °F - 37.4 °F 42% 29.76 in 10.0 mi SW 13.8 mph 21.9 mph N/A   Clear
11:35 AM 60.8 °F - 37.4 °F 42% 29.75 in 10.0 mi SW 13.8 mph 25.3 mph N/A   Clear
11:55 AM 60.8 °F - 37.4 °F 42% 29.73 in 10.0 mi SW 15.0 mph - N/A   Clear
12:15 PM 60.8 °F - 37.4 °F 42% 29.73 in 10.0 mi SW 12.7 mph - N/A   Clear
12:55 PM 60.8 °F - 39.2 °F 45% 29.72 in 10.0 mi SW 9.2 mph - N/A   Clear
1:15 PM 60.8 °F - 39.2 °F 45% 29.72 in 10.0 mi SW 6.9 mph - N/A   Clear
1:55 PM 62.6 °F - 39.2 °F 42% 29.70 in 10.0 mi WSW 10.4 mph - N/A   Clear
2:35 PM 62.6 °F - 39.2 °F 42% 29.70 in 10.0 mi SW 12.7 mph 17.3 mph N/A   Clear
2:55 PM 62.6 °F - 39.2 °F 42% 29.71 in 10.0 mi SW 10.4 mph 16.1 mph N/A   Clear
3:15 PM 62.6 °F - 39.2 °F 42% 29.70 in 10.0 mi SW 9.2 mph - N/A   Clear
3:35 PM 60.8 °F - 39.2 °F 45% 29.71 in 10.0 mi SW 8.1 mph - N/A   Clear
3:55 PM 62.6 °F - 37.4 °F 39% 29.72 in 10.0 mi SW 11.5 mph - N/A   Clear
4:15 PM 59.0 °F - 37.4 °F 45% 29.72 in 10.0 mi SSW 9.2 mph - N/A   Clear
4:35 PM 57.2 °F - 37.4 °F 48% 29.72 in 10.0 mi SSW 4.6 mph - N/A   Clear
4:55 PM 55.4 °F - 37.4 °F 51% 29.73 in 10.0 mi SSW 8.1 mph - N/A   Clear
5:15 PM 55.4 °F - 37.4 °F 51% 29.74 in 10.0 mi SW 4.6 mph - N/A   Clear
5:35 PM 53.6 °F - 37.4 °F 54% 29.74 in 10.0 mi Calm Calm - N/A   Clear
5:55 PM 53.6 °F - 37.4 °F 54% 29.75 in 10.0 mi South 3.5 mph - N/A   Clear
6:15 PM 51.8 °F - 37.4 °F 58% 29.76 in 10.0 mi South 3.5 mph - N/A   Clear
6:35 PM 50.0 °F - 37.4 °F 62% 29.75 in 10.0 mi South 3.5 mph - N/A   Clear
6:55 PM 48.2 °F - 39.2 °F 71% 29.75 in 10.0 mi South 4.6 mph - N/A   Clear
7:15 PM 46.4 °F - 37.4 °F 71% 29.76 in 10.0 mi Calm Calm - N/A   Clear
7:35 PM 50.0 °F - 39.2 °F 66% 29.76 in 10.0 mi South 3.5 mph - N/A   Clear
7:55 PM 46.4 °F 44.3 °F 37.4 °F 71% 29.77 in 10.0 mi South 4.6 mph - N/A   Clear
8:15 PM 50.0 °F - 39.2 °F 66% 29.77 in 10.0 mi SSW 4.6 mph - N/A   Clear
8:35 PM 48.2 °F - 39.2 °F 71% 29.76 in 10.0 mi South 5.8 mph - N/A   Clear
8:55 PM 46.4 °F 44.3 °F 37.4 °F 71% 29.77 in 10.0 mi SSW 4.6 mph - N/A   Clear
9:15 PM 46.4 °F 45.2 °F 37.4 °F 71% 29.77 in 10.0 mi SSW 3.5 mph - N/A   Clear
9:35 PM 48.2 °F - 37.4 °F 66% 29.77 in 10.0 mi SSW 6.9 mph - N/A   Clear
9:55 PM 48.2 °F - 37.4 °F 66% 29.77 in 10.0 mi SSW 5.8 mph - N/A   Clear
10:15 PM 48.2 °F - 37.4 °F 66% 29.77 in 10.0 mi SSW 4.6 mph - N/A   Clear
10:35 PM 46.4 °F - 37.4 °F 71% 29.76 in 10.0 mi Calm Calm - N/A   Clear
10:55 PM 44.6 °F - 37.4 °F 76% 29.77 in 10.0 mi Calm Calm - N/A   Clear
11:15 PM 42.8 °F - 37.4 °F 81% 29.77 in 10.0 mi Calm Calm - N/A   Clear
11:35 PM 46.4 °F - 37.4 °F 71% 29.77 in 10.0 mi Calm Calm - N/A   Clear
11:55 PM 42.8 °F 41.1 °F 35.6 °F 76% 29.75 in 10.0 mi SE 3.5 mph - N/A   Clear